Richmond, VA (23269)

8:57 PM EDT on September 02, 2014 (GMT -0400)
Laburnum Park/Ginter Park | Change Station
CLOSE
Current Station
Personal Weather Station
Location: Richmond, VA
Elevation: 195 ft
Nearby Weather Stations

Elev 195 ft 37.58 °N, 77.45 °W | Updated 56 seconds ago

Partly Cloudy
Partly Cloudy
86.5 °F
Feels Like 90 °F
N
0.0
Wind Variable Wind from SSW
Gusts 1.0 mph

Today
High -- | Low -- °F
--% Chance of Precip.
Yesterday
High -- | Low -- °F
Precip. -- in
6:40 AM 7:37 PM
First Quarter, 56% visible
Pressure 29.91 in
Visibility 10.0 miles
Clouds Scattered Clouds 25000 ft
Heat Index 90 °F
Dew Point 68 °F
Humidity 54%
Rainfall 0.00 in
Snow Depth Not available.
UV 0 out of 12
Pollen 10.20 out of 12
Ozone Good
PM2.5 Moderate
Flu Activity Not available.
METAR KRIC 022354Z 20009KT 10SM SCT250 31/21 A2991 RMK AO2 SLP129 T03110206 10383 20306 53001

More Conditions Fewer Conditions

Pressure 29.91 in
Visibility 10.0 miles
Clouds Scattered Clouds 25000 ft
Heat Index 90 °F
Dew Point 68 °F
Humidity 54%
Rainfall 0.00 in
Snow Depth Not available.
UV 0 out of 12
Pollen 10.20 out of 12
Ozone Good
PM2.5 Moderate
Flu Activity Not available.
METAR KRIC 022354Z 20009KT 10SM SCT250 31/21 A2991 RMK AO2 SLP129 T03110206 10383 20306 53001

More Conditions Fewer Conditions

10-Day Weather Forecast

Almanac

Astronomy

Sep. 02, 2014 Rise Set
Actual Time 6:40 AM EDT 7:37 PM EDT
Civil Twilight 6:14 AM EDT 8:04 PM EDT
Nautical Twilight 5:42 AM EDT 8:35 PM EDT
Astronomical Twilight 5:09 AM EDT 9:08 PM EDT
Moon 2:14 PM EDT (9/2) No Moon Set
Length of Visible Light 13h 49m
Length of Day
12h 56m
Tomorrow will be 2m 20s shorter.
First Quarter, 56% of the Moon is Illuminated
Today
First Quarter
Sep 8
Full
Sep 15
Last Quarter
Sep 24
New
Oct 1
First Quarter

Today's Extremes

State Highs State Lows

Community

WunderPhotos

Upload Photos

1,749,808 photos uploaded!

Nearby

Air Quality

  Air Quality AQ Index Pollutant
Yesterday Good
OZONE
Yesterday Good
PM2.5
Current Moderate
PM2.5
Current Good
OZONE
Tuesday Moderate
PM2.5
Tuesday Good
OZONE
Wednesday Moderate
PM2.5
Wednesday Good
OZONE

Snow Depth

Station Depth Elevation
No new snow has been reported.

Earthquake Activity

City Distance Mag. Time & Date
No recent earthquake activity has been reported nearby.
Minimum magnitude displayed is 2.5.

Coastal Water Temperatures

Place Temperature
No Stations Reporting

Nearby Weather Stations